createdAt,value
2023-05-05T00:01:50.759Z,50.30
2023-05-05T00:04:53.289Z,50.20
2023-05-05T00:07:58.505Z,50.47
2023-05-05T00:11:01.045Z,50.38
2023-05-05T00:14:11.260Z,50.75
2023-05-05T00:17:13.698Z,50.39
2023-05-05T00:20:15.961Z,51.14
2023-05-05T00:23:21.656Z,51.21
2023-05-05T00:26:24.092Z,50.89
2023-05-05T00:29:30.608Z,50.48
2023-05-05T00:32:35.187Z,50.69
2023-05-05T00:35:39.742Z,50.83
2023-05-05T00:38:44.424Z,51.00
2023-05-05T00:41:46.693Z,50.72
2023-05-05T00:44:51.369Z,51.31
2023-05-05T00:48:01.433Z,50.48
2023-05-05T00:51:09.175Z,51.32
2023-05-05T00:54:11.676Z,51.60
2023-05-05T00:57:16.680Z,52.37
2023-05-05T01:00:19.060Z,52.43
2023-05-05T01:03:24.040Z,52.17
2023-05-05T01:06:57.329Z,52.37
2023-05-05T01:10:19.860Z,53.06
2023-05-05T01:13:26.558Z,54.22
2023-05-05T01:16:36.155Z,54.51
2023-05-05T01:19:50.660Z,54.86
2023-05-05T01:23:06.833Z,55.08
2023-05-05T01:26:37.054Z,55.18
2023-05-05T01:30:03.440Z,56.01
2023-05-05T01:33:09.415Z,55.75
2023-05-05T01:36:22.764Z,56.62
2023-05-05T01:39:31.160Z,56.77
2023-05-05T01:42:40.945Z,56.73
2023-05-05T01:45:45.320Z,57.23
2023-05-05T01:48:53.791Z,57.33
2023-05-05T01:51:57.773Z,57.44
2023-05-05T01:55:04.247Z,57.97
2023-05-05T01:58:12.009Z,57.89
2023-05-05T02:01:15.483Z,57.68
2023-05-05T02:04:24.295Z,57.86
2023-05-05T02:07:36.149Z,58.63
2023-05-05T02:10:42.927Z,57.31
2023-05-05T02:13:46.790Z,57.50
2023-05-05T02:16:54.526Z,57.13
2023-05-05T02:20:01.128Z,56.68
2023-05-05T02:23:05.805Z,56.08
2023-05-05T02:26:14.062Z,56.19
2023-05-05T02:29:28.534Z,55.96
2023-05-05T02:32:35.152Z,56.23
2023-05-05T02:35:45.861Z,56.59
2023-05-05T02:38:56.281Z,56.38
2023-05-05T02:42:05.413Z,56.21
2023-05-05T02:45:12.210Z,54.74
2023-05-05T02:48:17.414Z,55.33
2023-05-05T02:51:19.710Z,56.27
2023-05-05T02:54:22.371Z,56.25
2023-05-05T02:57:53.666Z,56.31
2023-05-05T03:01:24.889Z,57.10
2023-05-05T03:04:38.051Z,56.92
2023-05-05T03:07:56.740Z,57.06
2023-05-05T03:11:06.742Z,57.71
2023-05-05T03:14:18.497Z,57.76
2023-05-05T03:17:24.691Z,56.92
2023-05-05T03:20:28.819Z,55.93
2023-05-05T03:23:33.912Z,56.26
2023-05-05T03:26:38.822Z,56.41
2023-05-05T03:29:44.930Z,56.75
2023-05-05T03:32:50.980Z,57.21
2023-05-05T03:35:53.434Z,57.04
2023-05-05T03:38:58.097Z,57.79
2023-05-05T03:42:04.510Z,57.96
2023-05-05T03:45:08.958Z,58.42
2023-05-05T03:48:11.984Z,58.50
2023-05-05T03:51:16.448Z,59.31
2023-05-05T03:54:19.169Z,58.95
2023-05-05T03:57:23.912Z,58.72
2023-05-05T04:00:27.596Z,59.57
2023-05-05T04:03:30.240Z,59.48
2023-05-05T04:06:34.942Z,59.35
2023-05-05T04:09:44.357Z,59.08
2023-05-05T04:12:47.527Z,58.45
2023-05-05T04:15:52.058Z,58.80
2023-05-05T04:18:55.631Z,58.70
2023-05-05T04:22:00.503Z,58.39
2023-05-05T04:25:08.019Z,57.63
2023-05-05T04:28:16.054Z,57.72
2023-05-05T04:31:18.510Z,57.58
2023-05-05T04:34:25.915Z,57.64
2023-05-05T04:37:28.430Z,56.84
2023-05-05T04:40:38.102Z,57.01
2023-05-05T04:43:41.452Z,56.36
2023-05-05T04:46:46.122Z,56.24
2023-05-05T04:49:49.685Z,56.82
2023-05-05T04:52:54.447Z,55.74
2023-05-05T04:56:03.468Z,55.36
2023-05-05T04:59:10.638Z,55.14
2023-05-05T05:02:15.438Z,54.43
2023-05-05T05:05:23.253Z,55.02
2023-05-05T05:08:28.040Z,54.40
2023-05-05T05:11:30.344Z,54.30
2023-05-05T05:14:39.687Z,54.42
2023-05-05T05:17:42.427Z,53.27
2023-05-05T05:20:47.511Z,52.52
2023-05-05T05:23:50.795Z,52.28
2023-05-05T05:26:53.760Z,52.12
2023-05-05T05:30:01.241Z,51.66
2023-05-05T05:33:04.974Z,50.45
2023-05-05T05:36:09.865Z,49.09
2023-05-05T05:39:14.460Z,46.95
2023-05-05T05:42:17.191Z,47.83
2023-05-05T05:45:22.370Z,47.05
2023-05-05T05:48:28.530Z,46.62
2023-05-05T05:51:31.886Z,44.10
2023-05-05T05:54:39.594Z,43.85
2023-05-05T05:57:43.312Z,42.97
2023-05-05T06:00:49.309Z,42.12
2023-05-05T06:03:54.225Z,41.96
2023-05-05T06:06:57.308Z,40.05
2023-05-05T06:10:04.862Z,40.78
2023-05-05T06:13:16.460Z,39.90
2023-05-05T06:16:24.459Z,40.09
2023-05-05T06:19:27.118Z,39.90
2023-05-05T06:22:30.005Z,39.81
2023-05-05T06:25:36.178Z,39.43
2023-05-05T06:28:41.382Z,39.63
2023-05-05T06:31:43.601Z,39.25
2023-05-05T06:34:48.369Z,38.86
2023-05-05T06:37:53.148Z,38.32
2023-05-05T06:40:55.527Z,37.26
2023-05-05T06:44:00.265Z,39.37
2023-05-05T06:47:09.999Z,39.06
2023-05-05T06:50:14.523Z,38.38
2023-05-05T06:53:16.806Z,37.08
2023-05-05T06:56:19.410Z,38.51
2023-05-05T06:59:26.812Z,37.70
2023-05-05T07:02:29.080Z,37.16
2023-05-05T07:05:36.753Z,36.79
2023-05-05T07:08:38.994Z,36.07
2023-05-05T07:11:43.695Z,34.53
2023-05-05T07:14:48.847Z,34.10
2023-05-05T07:17:51.187Z,33.51
2023-05-05T07:20:55.890Z,33.07
2023-05-05T07:23:58.171Z,32.51
2023-05-05T07:27:06.307Z,32.40
2023-05-05T07:30:13.230Z,32.27
2023-05-05T07:33:21.297Z,33.35
2023-05-05T07:36:23.646Z,31.90
2023-05-05T07:39:28.328Z,30.22
2023-05-05T07:42:30.724Z,29.83
2023-05-05T07:45:33.082Z,30.84
2023-05-05T07:48:39.110Z,29.83
2023-05-05T07:51:42.091Z,29.38
2023-05-05T07:54:48.039Z,29.14
2023-05-05T07:57:50.318Z,31.73
2023-05-05T08:00:57.307Z,31.02
2023-05-05T08:04:02.049Z,29.31
2023-05-05T08:07:07.277Z,28.23
2023-05-05T08:10:12.935Z,27.45
2023-05-05T08:13:17.469Z,27.64
2023-05-05T08:16:22.347Z,27.81
2023-05-05T08:19:29.533Z,28.33
2023-05-05T08:22:35.362Z,27.66
2023-05-05T08:25:37.567Z,27.19
2023-05-05T08:28:40.054Z,27.06
2023-05-05T08:31:42.387Z,27.35
2023-05-05T08:34:46.881Z,27.29
2023-05-05T08:37:54.291Z,26.50
2023-05-05T08:41:00.781Z,26.88
2023-05-05T08:44:07.549Z,25.54
2023-05-05T08:47:20.601Z,25.82
2023-05-05T08:50:26.574Z,26.16
2023-05-05T08:53:45.885Z,25.21
2023-05-05T08:56:51.675Z,25.39
2023-05-05T08:59:58.073Z,26.78
2023-05-05T09:03:01.566Z,26.98
2023-05-05T09:06:04.656Z,26.77
2023-05-05T09:09:08.227Z,25.68
2023-05-05T09:12:10.523Z,26.27
2023-05-05T09:15:15.006Z,27.13
2023-05-05T09:18:20.204Z,26.08
2023-05-05T09:21:30.597Z,27.29
2023-05-05T09:24:35.284Z,27.58
2023-05-05T09:27:55.629Z,27.53
2023-05-05T09:31:12.990Z,27.04
2023-05-05T09:34:16.682Z,28.22
2023-05-05T09:37:30.326Z,27.84
2023-05-05T09:40:48.807Z,27.93
2023-05-05T09:43:52.496Z,28.39
2023-05-05T09:46:58.276Z,28.36
2023-05-05T09:50:06.707Z,28.88
2023-05-05T09:53:11.922Z,29.96
2023-05-05T09:56:14.221Z,30.23
2023-05-05T09:59:21.797Z,30.74
2023-05-05T10:02:39.184Z,31.26
2023-05-05T10:05:50.429Z,30.32
2023-05-05T10:09:01.556Z,30.50
2023-05-05T10:12:04.859Z,30.18
2023-05-05T10:15:08.664Z,30.09
2023-05-05T10:18:14.496Z,29.69
2023-05-05T10:21:24.554Z,30.11
2023-05-05T10:24:42.040Z,29.42
2023-05-05T10:27:55.147Z,30.32
2023-05-05T10:31:00.920Z,30.97
2023-05-05T10:34:06.076Z,30.59
2023-05-05T10:37:09.035Z,31.70
2023-05-05T10:40:17.817Z,31.06
2023-05-05T10:43:20.875Z,31.34
2023-05-05T10:46:26.485Z,31.37
2023-05-05T10:50:09.129Z,31.11
2023-05-05T10:53:28.692Z,32.10
2023-05-05T10:56:36.187Z,30.24
2023-05-05T10:59:38.848Z,30.77
2023-05-05T11:02:41.463Z,31.16
2023-05-05T11:06:02.617Z,30.72
2023-05-05T11:09:27.984Z,31.41
2023-05-05T11:12:54.338Z,31.33
2023-05-05T11:16:00.921Z,32.38
2023-05-05T11:19:41.714Z,31.34
2023-05-05T11:23:02.513Z,32.71
2023-05-05T11:26:07.227Z,30.97
2023-05-05T11:29:09.707Z,32.09
2023-05-05T11:32:18.340Z,31.20
2023-05-05T11:35:56.200Z,31.58
2023-05-05T11:39:09.665Z,31.97
2023-05-05T11:42:24.299Z,31.89
2023-05-05T11:45:29.418Z,31.58
2023-05-05T11:48:47.202Z,32.94
2023-05-05T11:51:59.609Z,32.46
2023-05-05T11:55:02.114Z,32.15
2023-05-05T11:58:18.141Z,32.41
2023-05-05T12:01:24.909Z,31.25
2023-05-05T12:04:27.458Z,31.87
2023-05-05T12:07:33.558Z,31.33
2023-05-05T12:10:35.861Z,31.32
2023-05-05T12:13:38.298Z,31.12
2023-05-05T12:16:40.802Z,31.24
2023-05-05T12:19:48.070Z,32.45
2023-05-05T12:22:50.701Z,33.47
2023-05-05T12:25:53.357Z,32.85
2023-05-05T12:29:01.638Z,32.34
2023-05-05T12:32:04.355Z,32.93
2023-05-05T12:35:10.122Z,33.20
2023-05-05T12:38:16.105Z,32.86
2023-05-05T12:41:25.506Z,32.40
2023-05-05T12:44:35.920Z,31.98
2023-05-05T12:47:38.472Z,31.21
2023-05-05T12:50:40.896Z,30.98
2023-05-05T12:53:44.041Z,30.87
2023-05-05T12:56:47.593Z,31.35
2023-05-05T12:59:54.809Z,31.65
2023-05-05T13:02:59.295Z,32.26
2023-05-05T13:06:19.700Z,31.78
2023-05-05T13:09:30.464Z,31.76
2023-05-05T13:12:32.761Z,32.10
2023-05-05T13:15:35.087Z,31.56
2023-05-05T13:18:47.685Z,31.65
2023-05-05T13:21:50.031Z,30.93
2023-05-05T13:24:59.370Z,31.43
2023-05-05T13:28:04.399Z,30.29
2023-05-05T13:31:09.250Z,30.93
2023-05-05T13:34:12.174Z,30.91
2023-05-05T13:37:14.548Z,31.17
2023-05-05T13:40:19.100Z,30.88
2023-05-05T13:43:21.323Z,30.45
2023-05-05T13:46:26.030Z,30.70
2023-05-05T13:49:28.329Z,30.84
2023-05-05T13:52:33.401Z,30.79
2023-05-05T13:55:38.412Z,31.34
2023-05-05T13:58:45.213Z,31.44
2023-05-05T14:01:52.306Z,31.55
2023-05-05T14:04:56.981Z,31.05
2023-05-05T14:08:01.498Z,31.41
2023-05-05T14:11:06.475Z,31.79
2023-05-05T14:14:13.464Z,31.74
2023-05-05T14:17:20.899Z,31.76
2023-05-05T14:20:28.163Z,31.17
2023-05-05T14:23:33.651Z,31.03
2023-05-05T14:26:35.907Z,30.93
2023-05-05T14:29:38.286Z,31.71
2023-05-05T14:32:45.550Z,31.40
2023-05-05T14:35:49.474Z,31.57
2023-05-05T14:38:54.175Z,31.45
2023-05-05T14:42:01.572Z,31.78
2023-05-05T14:45:07.083Z,31.42
2023-05-05T14:48:09.910Z,32.04
2023-05-05T14:51:18.500Z,31.71
2023-05-05T14:54:28.255Z,30.93
2023-05-05T14:57:31.473Z,31.01
2023-05-05T15:00:33.871Z,31.33
2023-05-05T15:03:36.382Z,31.29
2023-05-05T15:06:38.772Z,31.43
2023-05-05T15:09:43.504Z,31.11
2023-05-05T15:12:48.617Z,30.72
2023-05-05T15:15:51.491Z,31.41
2023-05-05T15:18:53.844Z,30.67
2023-05-05T15:21:59.173Z,30.88
2023-05-05T15:25:10.939Z,32.38
2023-05-05T15:28:15.843Z,31.46
2023-05-05T15:31:20.384Z,31.66
2023-05-05T15:34:24.981Z,31.90
2023-05-05T15:37:32.169Z,31.07
2023-05-05T15:40:34.469Z,31.29
2023-05-05T15:43:41.482Z,31.42
2023-05-05T15:46:43.757Z,31.64
2023-05-05T15:49:46.280Z,31.13
2023-05-05T15:52:50.073Z,31.34
2023-05-05T15:55:54.812Z,30.63
2023-05-05T15:58:58.420Z,31.39
2023-05-05T16:02:00.756Z,31.46
2023-05-05T16:05:05.494Z,30.85
2023-05-05T16:08:10.288Z,31.73
2023-05-05T16:11:14.540Z,32.37
2023-05-05T16:14:19.282Z,32.44
2023-05-05T16:17:25.382Z,31.70
2023-05-05T16:20:29.742Z,32.18
2023-05-05T16:23:32.012Z,32.10
2023-05-05T16:26:35.920Z,31.92
2023-05-05T16:29:38.277Z,31.76
2023-05-05T16:32:45.166Z,31.88
2023-05-05T16:35:47.619Z,31.92
2023-05-05T16:38:52.341Z,32.31
2023-05-05T16:41:54.584Z,32.28
2023-05-05T16:45:04.156Z,31.57
2023-05-05T16:48:09.427Z,32.23
2023-05-05T16:51:11.753Z,32.02
2023-05-05T16:54:21.250Z,31.95
2023-05-05T16:57:23.787Z,31.68
2023-05-05T17:00:30.971Z,32.52
2023-05-05T17:03:33.284Z,33.33
2023-05-05T17:06:35.577Z,32.82
2023-05-05T17:09:37.883Z,32.57
2023-05-05T17:12:40.499Z,32.57
2023-05-05T17:15:45.094Z,32.57
2023-05-05T17:18:47.908Z,32.79
2023-05-05T17:21:57.317Z,33.32
2023-05-05T17:24:59.674Z,32.82
2023-05-05T17:28:05.445Z,33.42
2023-05-05T17:31:10.431Z,33.38
2023-05-05T17:34:15.955Z,33.67
2023-05-05T17:37:20.442Z,33.42
2023-05-05T17:40:22.859Z,33.64
2023-05-05T17:43:29.762Z,33.45
2023-05-05T17:46:34.563Z,33.59
2023-05-05T17:49:36.892Z,34.14
2023-05-05T17:52:45.070Z,35.13
2023-05-05T17:55:49.904Z,35.41
2023-05-05T17:58:56.971Z,35.80
2023-05-05T18:02:03.939Z,36.10
2023-05-05T18:05:06.477Z,36.84
2023-05-05T18:08:08.983Z,36.79
2023-05-05T18:11:23.743Z,37.40
2023-05-05T18:14:28.338Z,37.49
2023-05-05T18:17:33.888Z,37.86
2023-05-05T18:20:36.356Z,38.29
2023-05-05T18:23:39.644Z,38.74
2023-05-05T18:26:44.166Z,38.79
2023-05-05T18:29:46.403Z,39.23
2023-05-05T18:32:51.166Z,39.41
2023-05-05T18:35:53.585Z,39.88
2023-05-05T18:38:58.448Z,40.19
2023-05-05T18:42:00.922Z,40.54
2023-05-05T18:45:07.897Z,40.86
2023-05-05T18:48:10.380Z,41.48
2023-05-05T18:51:15.061Z,41.26
2023-05-05T18:54:17.451Z,42.22
2023-05-05T18:57:19.677Z,41.95
2023-05-05T19:00:24.557Z,42.45
2023-05-05T19:03:26.833Z,42.86
2023-05-05T19:06:29.271Z,42.96
2023-05-05T19:09:33.747Z,43.69
2023-05-05T19:12:40.819Z,43.82
2023-05-05T19:15:45.639Z,44.07
2023-05-05T19:18:47.987Z,44.32
2023-05-05T19:21:50.364Z,44.66
2023-05-05T19:24:52.735Z,45.56
2023-05-05T19:27:57.321Z,45.26
2023-05-05T19:31:01.866Z,45.88
2023-05-05T19:34:05.437Z,46.37
2023-05-05T19:37:07.745Z,45.91
2023-05-05T19:40:13.776Z,46.55
2023-05-05T19:43:18.820Z,47.34
2023-05-05T19:46:23.316Z,47.94
2023-05-05T19:49:25.590Z,47.35
2023-05-05T19:52:29.655Z,47.60
2023-05-05T19:55:33.148Z,47.75
2023-05-05T19:59:02.278Z,49.01
2023-05-05T20:02:06.830Z,49.24
2023-05-05T20:05:13.996Z,49.40
2023-05-05T20:08:19.141Z,49.41
2023-05-05T20:11:25.116Z,49.79
2023-05-05T20:14:27.532Z,50.17
2023-05-05T20:17:29.977Z,50.19
2023-05-05T20:20:34.720Z,50.18
2023-05-05T20:23:37.585Z,50.06
2023-05-05T20:26:44.900Z,50.81
2023-05-05T20:29:49.594Z,50.87
2023-05-05T20:32:51.916Z,50.80
2023-05-05T20:35:54.322Z,50.91
2023-05-05T20:38:56.631Z,50.67
2023-05-05T20:41:59.076Z,51.48
2023-05-05T20:45:07.271Z,51.49
2023-05-05T20:48:12.271Z,51.64
2023-05-05T20:51:17.227Z,52.05
2023-05-05T20:54:24.228Z,52.43
2023-05-05T20:57:32.070Z,52.43
2023-05-05T21:00:39.364Z,53.13
2023-05-05T21:03:43.891Z,52.87
2023-05-05T21:06:49.288Z,53.25
2023-05-05T21:09:51.490Z,53.21
2023-05-05T21:12:53.845Z,53.50
2023-05-05T21:15:56.110Z,53.84
2023-05-05T21:19:00.581Z,53.99
2023-05-05T21:22:02.826Z,54.51
2023-05-05T21:25:16.575Z,54.30
2023-05-05T21:28:18.822Z,54.81
2023-05-05T21:31:23.721Z,54.74
2023-05-05T21:34:26.165Z,54.54
2023-05-05T21:37:31.196Z,55.50
2023-05-05T21:40:33.448Z,55.39
2023-05-05T21:43:35.831Z,55.20
2023-05-05T21:46:38.110Z,55.46
2023-05-05T21:49:40.419Z,52.28
2023-05-05T21:52:47.650Z,52.82
2023-05-05T21:55:55.206Z,52.28
2023-05-05T21:58:59.943Z,53.41
2023-05-05T22:02:02.309Z,53.08
2023-05-05T22:05:10.583Z,51.84
2023-05-05T22:08:17.612Z,51.89
2023-05-05T22:11:19.892Z,51.76
2023-05-05T22:14:24.343Z,52.02
2023-05-05T22:17:26.704Z,52.12
2023-05-05T22:20:31.305Z,52.63
2023-05-05T22:23:33.614Z,52.78
2023-05-05T22:26:43.284Z,53.24
2023-05-05T22:29:48.835Z,53.25
2023-05-05T22:32:51.147Z,53.65
2023-05-05T22:35:56.154Z,53.35
2023-05-05T22:39:01.018Z,54.12
2023-05-05T22:42:03.860Z,54.52
2023-05-05T22:45:06.891Z,54.80
2023-05-05T22:48:09.388Z,55.30
2023-05-05T22:51:11.727Z,55.35
2023-05-05T22:54:14.105Z,55.50
2023-05-05T22:57:16.350Z,55.60
2023-05-05T23:00:20.954Z,55.77
2023-05-05T23:03:25.473Z,55.37
2023-05-05T23:06:28.575Z,56.06
2023-05-05T23:09:35.772Z,56.18
2023-05-05T23:12:38.166Z,56.23
2023-05-05T23:15:43.640Z,56.54
2023-05-05T23:18:48.107Z,56.54
2023-05-05T23:21:53.798Z,56.78
2023-05-05T23:24:56.173Z,56.62
2023-05-05T23:27:58.545Z,57.15
2023-05-05T23:31:01.122Z,56.89
2023-05-05T23:34:03.421Z,57.08
2023-05-05T23:37:08.097Z,56.73
2023-05-05T23:40:12.805Z,56.99
2023-05-05T23:43:15.048Z,58.24
2023-05-05T23:46:22.701Z,58.13
2023-05-05T23:49:26.378Z,58.29
2023-05-05T23:52:29.804Z,58.98
2023-05-05T23:55:34.415Z,58.88
2023-05-05T23:58:36.624Z,59.27
